createdAt,value
2022-10-13T00:00:17.904Z,4.35
2022-10-13T00:02:47.730Z,7.95
2022-10-13T00:05:16.265Z,6.05
2022-10-13T00:07:43.369Z,5.85
2022-10-13T00:10:11.376Z,3.40
2022-10-13T00:12:41.936Z,6.03
2022-10-13T00:15:11.523Z,4.07
2022-10-13T00:17:38.525Z,8.60
2022-10-13T00:20:06.487Z,13.77
2022-10-13T00:22:33.481Z,5.68
2022-10-13T00:25:00.636Z,7.55
2022-10-13T00:27:27.632Z,5.07
2022-10-13T00:29:55.107Z,5.45
2022-10-13T00:32:22.076Z,7.18
2022-10-13T00:34:49.028Z,5.38
2022-10-13T00:37:17.613Z,6.10
2022-10-13T00:39:47.601Z,10.52
2022-10-13T00:42:14.447Z,8.23
2022-10-13T00:44:59.669Z,5.07
2022-10-13T00:47:27.475Z,7.57
2022-10-13T00:49:57.505Z,5.25
2022-10-13T00:52:27.121Z,5.00
2022-10-13T00:55:00.244Z,4.88
2022-10-13T00:57:27.407Z,6.10
2022-10-13T00:59:55.378Z,5.93
2022-10-13T01:02:22.908Z,4.90
2022-10-13T01:04:50.716Z,4.95
2022-10-13T01:07:19.751Z,9.68
2022-10-13T01:09:47.637Z,5.65
2022-10-13T01:12:27.046Z,4.57
2022-10-13T01:15:10.784Z,6.63
2022-10-13T01:17:47.976Z,7.75
2022-10-13T01:20:53.203Z,10.50
2022-10-13T01:23:38.614Z,6.70
2022-10-13T01:26:29.116Z,6.68
2022-10-13T01:29:14.767Z,6.93
2022-10-13T01:31:47.718Z,7.97
2022-10-13T01:34:21.871Z,11.38
2022-10-13T01:37:00.183Z,12.65
2022-10-13T01:39:40.726Z,10.80
2022-10-13T01:42:13.529Z,11.52
2022-10-13T01:44:46.211Z,13.88
2022-10-13T01:47:17.967Z,10.25
2022-10-13T01:49:49.241Z,11.20
2022-10-13T01:52:21.364Z,9.65
2022-10-13T01:54:51.667Z,14.40
2022-10-13T01:57:35.665Z,9.00
2022-10-13T02:00:18.881Z,15.25
2022-10-13T02:02:46.005Z,10.13
2022-10-13T02:05:24.227Z,13.80
2022-10-13T02:08:03.686Z,8.52
2022-10-13T02:10:57.188Z,7.35
2022-10-13T02:13:25.482Z,10.25
2022-10-13T02:16:00.251Z,12.13
2022-10-13T02:18:35.231Z,12.05
2022-10-13T02:21:03.080Z,10.70
2022-10-13T02:23:30.216Z,7.28
2022-10-13T02:25:57.847Z,11.10
2022-10-13T02:28:30.600Z,13.77
2022-10-13T02:30:57.727Z,10.07
2022-10-13T02:33:25.130Z,13.60
2022-10-13T02:35:52.742Z,11.05
2022-10-13T02:38:19.803Z,7.18
2022-10-13T02:40:46.807Z,9.65
2022-10-13T02:43:19.931Z,10.75
2022-10-13T02:45:46.686Z,9.93
2022-10-13T02:48:13.969Z,10.50
2022-10-13T02:50:40.821Z,8.77
2022-10-13T02:53:11.076Z,8.05
2022-10-13T02:55:37.943Z,9.25
2022-10-13T02:58:05.523Z,12.93
2022-10-13T03:00:34.875Z,15.82
2022-10-13T03:03:09.944Z,13.00
2022-10-13T03:05:37.164Z,10.68
2022-10-13T03:08:07.372Z,9.07
2022-10-13T03:10:38.111Z,9.90
2022-10-13T03:13:04.921Z,12.98
2022-10-13T03:15:34.964Z,11.43
2022-10-13T03:18:04.966Z,8.45
2022-10-13T03:20:34.202Z,9.38
2022-10-13T03:23:01.571Z,11.55
2022-10-13T03:25:28.982Z,16.67
2022-10-13T03:27:59.128Z,8.82
2022-10-13T03:30:27.709Z,10.77
2022-10-13T03:32:54.679Z,8.45
2022-10-13T03:35:21.787Z,10.38
2022-10-13T03:37:51.727Z,7.00
2022-10-13T03:40:18.634Z,9.43
2022-10-13T03:42:48.812Z,8.52
2022-10-13T03:45:15.976Z,11.80
2022-10-13T03:47:43.307Z,8.68
2022-10-13T03:50:10.726Z,10.10
2022-10-13T03:52:37.589Z,7.82
2022-10-13T03:55:05.174Z,10.20
2022-10-13T03:57:31.978Z,9.35
2022-10-13T04:00:02.048Z,9.68
2022-10-13T04:02:29.012Z,13.38
2022-10-13T04:04:58.249Z,8.48
2022-10-13T04:07:30.637Z,6.72
2022-10-13T04:09:57.607Z,9.27
2022-10-13T04:12:30.843Z,7.45
2022-10-13T04:14:58.287Z,8.25
2022-10-13T04:17:27.769Z,11.18
2022-10-13T04:19:55.229Z,10.80
2022-10-13T04:22:22.878Z,7.38
2022-10-13T04:24:51.618Z,8.88
2022-10-13T04:27:20.702Z,9.05
2022-10-13T04:29:51.309Z,9.55
2022-10-13T04:32:18.607Z,5.50
2022-10-13T04:34:45.682Z,7.53
2022-10-13T04:37:13.315Z,8.27
2022-10-13T04:39:40.451Z,10.35
2022-10-13T04:42:07.850Z,8.63
2022-10-13T04:44:35.348Z,6.93
2022-10-13T04:47:03.950Z,9.55
2022-10-13T04:49:31.326Z,6.55
2022-10-13T04:52:00.302Z,6.22
2022-10-13T04:54:27.321Z,5.63
2022-10-13T04:56:54.196Z,9.52
2022-10-13T04:59:21.239Z,9.02
2022-10-13T05:01:53.929Z,11.15
2022-10-13T05:04:20.801Z,7.70
2022-10-13T05:07:16.449Z,7.13
2022-10-13T05:09:34.730Z,11.38
2022-10-13T05:12:04.606Z,9.13
2022-10-13T05:14:32.388Z,6.32
2022-10-13T05:17:01.355Z,8.80
2022-10-13T05:19:31.656Z,8.63
2022-10-13T05:22:01.641Z,11.13
2022-10-13T05:24:36.836Z,6.55
2022-10-13T05:27:07.380Z,8.38
2022-10-13T05:29:37.811Z,7.88
2022-10-13T05:32:05.407Z,8.02
2022-10-13T05:34:50.808Z,9.43
2022-10-13T05:37:18.729Z,8.25
2022-10-13T05:39:48.828Z,10.00
2022-10-13T05:42:19.162Z,8.25
2022-10-13T05:44:46.346Z,11.20
2022-10-13T05:47:13.288Z,7.68
2022-10-13T05:49:40.309Z,11.35
2022-10-13T05:52:09.054Z,14.13
2022-10-13T05:54:47.428Z,11.52
2022-10-13T05:57:30.548Z,14.50
2022-10-13T06:00:06.425Z,10.35
2022-10-13T06:02:39.323Z,11.13
2022-10-13T06:05:07.323Z,13.57
2022-10-13T06:07:36.566Z,13.77
2022-10-13T06:10:04.096Z,14.88
2022-10-13T06:12:31.026Z,10.75
2022-10-13T06:14:57.934Z,14.32
2022-10-13T06:17:28.119Z,13.88
2022-10-13T06:19:55.019Z,14.77
2022-10-13T06:22:22.559Z,14.90
2022-10-13T06:24:49.900Z,16.27
2022-10-13T06:27:17.165Z,15.43
2022-10-13T06:29:47.431Z,16.00
2022-10-13T06:32:17.938Z,12.77
2022-10-13T06:34:45.668Z,16.02
2022-10-13T06:37:12.545Z,14.60
2022-10-13T06:39:42.580Z,26.52
2022-10-13T06:42:09.785Z,12.73
2022-10-13T06:44:40.121Z,15.80
2022-10-13T06:47:10.383Z,13.25
2022-10-13T06:49:40.428Z,12.40
2022-10-13T06:52:10.663Z,12.80
2022-10-13T06:54:37.548Z,15.70
2022-10-13T06:57:08.209Z,13.07
2022-10-13T06:59:35.607Z,13.48
2022-10-13T07:02:05.757Z,13.18
2022-10-13T07:04:32.938Z,17.52
2022-10-13T07:06:59.878Z,15.02
2022-10-13T07:09:32.592Z,14.82
2022-10-13T07:12:03.182Z,12.60
2022-10-13T07:14:30.118Z,14.77
2022-10-13T07:17:00.454Z,17.30
2022-10-13T07:19:27.809Z,16.73
2022-10-13T07:21:55.260Z,15.48
2022-10-13T07:24:22.337Z,17.45
2022-10-13T07:26:49.867Z,16.48
2022-10-13T07:29:16.843Z,14.43
2022-10-13T07:31:44.670Z,14.50
2022-10-13T07:34:11.727Z,16.85
2022-10-13T07:36:44.165Z,16.17
2022-10-13T07:39:11.091Z,20.08
2022-10-13T07:41:41.104Z,18.17
2022-10-13T07:44:08.235Z,16.40
2022-10-13T07:46:35.244Z,17.20
2022-10-13T07:49:02.327Z,17.77
2022-10-13T07:51:29.403Z,18.88
2022-10-13T07:53:59.704Z,17.20
2022-10-13T07:56:30.093Z,17.83
2022-10-13T07:58:59.642Z,17.38
2022-10-13T08:01:29.247Z,18.23
2022-10-13T08:03:59.642Z,18.48
2022-10-13T08:06:32.707Z,16.77
2022-10-13T08:09:04.127Z,17.80
2022-10-13T08:11:31.433Z,15.65
2022-10-13T08:14:02.494Z,15.20
2022-10-13T08:16:33.571Z,20.63
2022-10-13T08:19:00.598Z,19.08
2022-10-13T08:21:53.162Z,19.48
2022-10-13T08:24:19.761Z,14.75
2022-10-13T08:26:47.127Z,18.80
2022-10-13T08:29:21.951Z,19.33
2022-10-13T08:31:54.205Z,17.25
2022-10-13T08:34:25.417Z,17.42
2022-10-13T08:36:54.892Z,17.25
2022-10-13T08:39:22.894Z,17.17
2022-10-13T08:41:53.686Z,19.85
2022-10-13T08:47:21.856Z,19.27
2022-10-13T08:49:59.808Z,19.35
2022-10-13T08:52:28.943Z,24.25
2022-10-13T08:54:56.490Z,17.55
2022-10-13T08:57:31.411Z,22.17
2022-10-13T08:59:58.976Z,20.80
2022-10-13T09:02:51.306Z,15.73
2022-10-13T09:05:28.022Z,14.30
2022-10-13T09:07:59.245Z,25.95
2022-10-13T09:10:28.929Z,22.48
2022-10-13T09:12:56.723Z,15.52
2022-10-13T09:15:24.147Z,25.38
2022-10-13T09:18:08.396Z,20.30
2022-10-13T09:20:35.409Z,20.50
2022-10-13T09:23:04.486Z,23.92
2022-10-13T09:25:51.310Z,23.50
2022-10-13T09:28:23.839Z,25.95
2022-10-13T09:31:01.086Z,27.73
2022-10-13T09:33:28.652Z,29.27
2022-10-13T09:36:02.688Z,26.15
2022-10-13T09:38:33.574Z,23.63
2022-10-13T09:41:06.594Z,30.55
2022-10-13T09:43:35.987Z,26.77
2022-10-13T09:46:14.967Z,30.67
2022-10-13T09:48:47.790Z,23.25
2022-10-13T09:51:31.275Z,29.80
2022-10-13T09:54:00.942Z,24.65
2022-10-13T09:56:33.640Z,28.25
2022-10-13T09:59:03.412Z,23.85
2022-10-13T10:01:43.894Z,31.08
2022-10-13T10:04:13.690Z,23.83
2022-10-13T10:06:48.003Z,28.98
2022-10-13T10:09:35.868Z,28.90
2022-10-13T10:12:05.910Z,30.00
2022-10-13T10:14:39.132Z,18.20
2022-10-13T10:17:14.566Z,27.25
2022-10-13T10:19:59.998Z,22.67
2022-10-13T10:22:29.814Z,21.95
2022-10-13T10:25:12.318Z,25.92
2022-10-13T10:27:44.883Z,23.67
2022-10-13T10:30:19.273Z,29.25
2022-10-13T10:33:09.167Z,29.00
2022-10-13T10:35:44.657Z,25.40
2022-10-13T10:38:30.260Z,18.15
2022-10-13T10:41:26.026Z,20.92
2022-10-13T10:44:04.845Z,23.23
2022-10-13T10:46:34.975Z,20.70
2022-10-13T10:49:04.882Z,22.95
2022-10-13T10:51:41.040Z,19.48
2022-10-13T10:54:26.697Z,23.65
2022-10-13T10:56:59.969Z,24.70
2022-10-13T10:59:44.081Z,24.42
2022-10-13T11:02:17.475Z,20.05
2022-10-13T11:04:49.148Z,14.38
2022-10-13T11:07:25.107Z,22.27
2022-10-13T11:09:57.042Z,19.85
2022-10-13T11:12:27.797Z,19.42
2022-10-13T11:14:59.422Z,19.23
2022-10-13T11:17:33.997Z,20.55
2022-10-13T11:20:25.796Z,21.63
2022-10-13T11:22:58.520Z,11.98
2022-10-13T11:25:34.269Z,18.55
2022-10-13T11:28:04.520Z,17.55
2022-10-13T11:30:47.455Z,18.02
2022-10-13T11:33:33.154Z,18.75
2022-10-13T11:36:22.125Z,20.95
2022-10-13T11:38:52.898Z,30.23
2022-10-13T11:41:26.371Z,21.88
2022-10-13T11:44:04.168Z,15.30
2022-10-13T11:46:31.336Z,8.35
2022-10-13T11:49:04.570Z,14.18
2022-10-13T11:51:34.505Z,15.10
2022-10-13T11:54:19.738Z,9.07
2022-10-13T11:56:54.327Z,17.33
2022-10-13T11:59:30.024Z,15.95
2022-10-13T12:02:05.887Z,14.82
2022-10-13T12:04:36.278Z,15.00
2022-10-13T12:07:11.128Z,12.88
2022-10-13T12:10:03.336Z,12.02
2022-10-13T12:12:32.405Z,13.15
2022-10-13T12:15:06.800Z,14.77
2022-10-13T12:17:39.227Z,12.63
2022-10-13T12:20:21.621Z,13.88
2022-10-13T12:22:48.938Z,13.00
2022-10-13T12:25:18.857Z,12.18
2022-10-13T12:27:54.127Z,15.70
2022-10-13T12:30:26.956Z,10.38
2022-10-13T12:32:55.814Z,10.02
2022-10-13T12:35:37.347Z,12.38
2022-10-13T12:38:08.736Z,10.43
2022-10-13T12:40:37.463Z,15.02
2022-10-13T12:43:07.549Z,12.82
2022-10-13T12:45:40.494Z,10.23
2022-10-13T12:48:07.611Z,15.07
2022-10-13T12:50:36.050Z,16.20
2022-10-13T12:53:09.585Z,12.90
2022-10-13T12:55:40.334Z,12.18
2022-10-13T12:58:18.178Z,13.50
2022-10-13T13:00:48.430Z,8.50
2022-10-13T13:03:26.543Z,13.50
2022-10-13T13:06:09.541Z,8.15
2022-10-13T13:08:43.600Z,8.90
2022-10-13T13:11:21.804Z,9.07
2022-10-13T13:13:52.318Z,9.75
2022-10-13T13:16:24.663Z,10.95
2022-10-13T13:18:57.468Z,7.90
2022-10-13T13:21:24.552Z,9.00
2022-10-13T13:23:56.659Z,13.63
2022-10-13T13:26:24.083Z,8.70
2022-10-13T13:28:52.059Z,7.72
2022-10-13T13:31:27.041Z,11.13
2022-10-13T13:33:55.887Z,7.03
2022-10-13T13:36:24.147Z,13.38
2022-10-13T13:38:51.752Z,10.65
2022-10-13T13:41:22.199Z,8.48
2022-10-13T13:43:54.002Z,8.27
2022-10-13T13:46:28.288Z,9.70
2022-10-13T13:48:58.454Z,12.60
2022-10-13T13:51:25.787Z,12.18
2022-10-13T13:53:53.354Z,9.27
2022-10-13T13:56:23.611Z,7.88
2022-10-13T13:58:53.534Z,6.00
2022-10-13T14:01:23.286Z,10.15
2022-10-13T14:03:50.868Z,6.20
2022-10-13T14:06:19.553Z,7.63
2022-10-13T14:08:56.467Z,9.88
2022-10-13T14:11:27.167Z,10.98
2022-10-13T14:13:57.452Z,8.02
2022-10-13T14:16:24.946Z,10.07
2022-10-13T14:18:51.815Z,12.43
2022-10-13T14:21:18.762Z,8.45
2022-10-13T14:23:47.480Z,8.25
2022-10-13T14:26:17.034Z,8.00
2022-10-13T14:28:44.907Z,8.82
2022-10-13T14:31:15.656Z,7.80
2022-10-13T14:33:48.699Z,12.00
2022-10-13T14:36:23.877Z,9.90
2022-10-13T14:38:51.796Z,9.07
2022-10-13T14:41:19.503Z,9.73
2022-10-13T14:43:46.770Z,9.57
2022-10-13T14:46:14.448Z,9.40
2022-10-13T14:48:41.904Z,9.82
2022-10-13T14:51:12.946Z,9.68
2022-10-13T14:53:43.355Z,7.10
2022-10-13T14:56:17.917Z,11.15
2022-10-13T14:58:54.786Z,10.55
2022-10-13T15:01:21.942Z,8.20
2022-10-13T15:03:52.198Z,7.95
2022-10-13T15:06:20.676Z,6.75
2022-10-13T15:08:49.910Z,7.25
2022-10-13T15:11:17.594Z,5.63
2022-10-13T15:13:47.687Z,11.63
2022-10-13T15:16:25.368Z,5.82
2022-10-13T15:18:52.444Z,7.03
2022-10-13T15:21:19.437Z,8.05
2022-10-13T15:23:47.086Z,6.68
2022-10-13T15:26:16.967Z,10.68
2022-10-13T15:28:45.669Z,8.00
2022-10-13T15:31:13.342Z,4.95
2022-10-13T15:33:43.087Z,12.00
2022-10-13T15:36:12.580Z,4.18
2022-10-13T15:38:44.126Z,5.75
2022-10-13T15:41:15.236Z,6.07
2022-10-13T15:43:42.618Z,7.28
2022-10-13T15:46:13.005Z,6.55
2022-10-13T15:48:40.035Z,8.07
2022-10-13T15:51:14.032Z,6.88
2022-10-13T15:53:44.142Z,6.10
2022-10-13T15:56:16.467Z,7.88
2022-10-13T15:58:43.554Z,6.22
2022-10-13T16:01:15.121Z,7.65
2022-10-13T16:03:42.667Z,12.23
2022-10-13T16:06:10.690Z,5.63
2022-10-13T16:08:41.377Z,8.95
2022-10-13T16:11:11.687Z,9.32
2022-10-13T16:13:39.258Z,4.57
2022-10-13T16:16:06.731Z,6.15
2022-10-13T16:18:35.611Z,7.65
2022-10-13T16:21:18.824Z,4.60
2022-10-13T16:23:46.713Z,6.78
2022-10-13T16:26:17.841Z,9.73
2022-10-13T16:28:48.271Z,5.53
2022-10-13T16:31:18.044Z,8.23
2022-10-13T16:33:45.886Z,5.38
2022-10-13T16:36:14.736Z,10.30
2022-10-13T16:38:48.335Z,8.82
2022-10-13T16:41:16.685Z,8.50
2022-10-13T16:43:44.122Z,6.90
2022-10-13T16:46:13.735Z,7.70
2022-10-13T16:48:41.953Z,7.43
2022-10-13T16:51:11.082Z,5.43
2022-10-13T16:53:40.583Z,6.72
2022-10-13T16:56:08.453Z,4.53
2022-10-13T16:58:35.759Z,11.27
2022-10-13T17:01:03.809Z,7.68
2022-10-13T17:03:33.456Z,5.22
2022-10-13T17:06:00.397Z,6.18
2022-10-13T17:08:27.595Z,6.15
2022-10-13T17:10:58.260Z,5.53
2022-10-13T17:13:28.905Z,6.28
2022-10-13T17:15:59.231Z,5.45
2022-10-13T17:18:26.914Z,3.53
2022-10-13T17:20:58.396Z,6.38
2022-10-13T17:23:30.659Z,6.80
2022-10-13T17:26:01.929Z,5.03
2022-10-13T17:28:33.795Z,10.80
2022-10-13T17:31:08.051Z,5.82
2022-10-13T17:33:37.533Z,6.63
2022-10-13T17:36:28.090Z,11.32
2022-10-13T17:38:57.817Z,6.75
2022-10-13T17:41:25.351Z,6.55
2022-10-13T17:43:52.583Z,5.13
2022-10-13T17:46:39.981Z,10.65
2022-10-13T17:49:12.595Z,5.18
2022-10-13T17:51:46.248Z,4.03
2022-10-13T17:54:15.987Z,5.10
2022-10-13T17:56:47.915Z,9.27
2022-10-13T17:59:15.998Z,6.45
2022-10-13T18:01:48.900Z,7.03
2022-10-13T18:04:17.109Z,6.68
2022-10-13T18:06:47.453Z,6.07
2022-10-13T18:09:18.226Z,7.63
2022-10-13T18:11:50.236Z,6.03
2022-10-13T18:14:21.892Z,6.97
2022-10-13T18:16:49.664Z,7.00
2022-10-13T18:19:16.589Z,4.55
2022-10-13T18:21:45.119Z,4.30
2022-10-13T18:24:17.933Z,8.60
2022-10-13T18:26:45.227Z,4.80
2022-10-13T18:29:15.887Z,5.68
2022-10-13T18:31:44.669Z,8.40
2022-10-13T18:34:16.834Z,7.40
2022-10-13T18:36:48.052Z,4.75
2022-10-13T18:39:18.715Z,6.45
2022-10-13T18:41:46.341Z,4.00
2022-10-13T18:44:13.857Z,8.45
2022-10-13T18:46:43.605Z,3.72
2022-10-13T18:49:15.249Z,4.90
2022-10-13T18:51:47.373Z,5.00
2022-10-13T18:54:17.532Z,6.22
2022-10-13T18:56:44.432Z,5.65
2022-10-13T18:59:14.776Z,5.07
2022-10-13T19:01:46.846Z,7.40
2022-10-13T19:04:18.412Z,6.57
2022-10-13T19:06:46.716Z,7.82
2022-10-13T19:09:17.950Z,5.13
2022-10-13T19:11:44.983Z,6.38
2022-10-13T19:14:12.713Z,3.83
2022-10-13T19:16:43.713Z,7.95
2022-10-13T19:19:11.263Z,10.27
2022-10-13T19:21:38.797Z,9.38
2022-10-13T19:24:07.864Z,6.50
2022-10-13T19:26:35.674Z,11.23
2022-10-13T19:29:07.247Z,5.40
2022-10-13T19:31:35.545Z,6.55
2022-10-13T19:34:02.980Z,8.60
2022-10-13T19:36:34.469Z,6.47
2022-10-13T19:39:03.494Z,5.05
2022-10-13T19:41:33.784Z,8.98
2022-10-13T19:44:01.594Z,3.88
2022-10-13T19:46:28.695Z,12.43
2022-10-13T19:48:55.671Z,9.27
2022-10-13T19:51:22.974Z,4.60
2022-10-13T19:53:52.655Z,4.95
2022-10-13T19:56:23.636Z,9.55
2022-10-13T19:58:51.571Z,6.20
2022-10-13T20:01:20.265Z,4.68
2022-10-13T20:03:47.834Z,12.13
2022-10-13T20:06:15.051Z,9.57
2022-10-13T20:08:45.267Z,5.75
2022-10-13T20:11:22.233Z,4.07
2022-10-13T20:13:52.275Z,4.43
2022-10-13T20:16:23.449Z,4.25
2022-10-13T20:18:58.112Z,3.70
2022-10-13T20:21:28.747Z,8.10
2022-10-13T20:23:56.732Z,3.83
2022-10-13T20:26:24.098Z,3.95
2022-10-13T20:28:54.860Z,6.53
2022-10-13T20:31:28.171Z,6.47
2022-10-13T20:33:56.273Z,5.00
2022-10-13T20:36:27.195Z,6.95
2022-10-13T20:38:54.723Z,5.50
2022-10-13T20:41:25.076Z,6.00
2022-10-13T20:44:02.216Z,5.93
2022-10-13T20:46:29.513Z,3.90
2022-10-13T20:49:13.135Z,8.73
2022-10-13T20:51:41.538Z,7.85
2022-10-13T20:54:14.482Z,9.93
2022-10-13T20:56:41.693Z,11.63
2022-10-13T20:59:17.869Z,4.47
2022-10-13T21:01:51.379Z,5.03
2022-10-13T21:04:18.682Z,3.83
2022-10-13T21:06:49.172Z,5.10
2022-10-13T21:09:19.764Z,6.82
2022-10-13T21:11:46.656Z,4.78
2022-10-13T21:14:13.527Z,11.02
2022-10-13T21:16:43.089Z,9.50
2022-10-13T21:19:10.165Z,8.38
2022-10-13T21:21:42.986Z,4.55
2022-10-13T21:24:10.623Z,7.45
2022-10-13T21:26:38.357Z,5.30
2022-10-13T21:29:05.881Z,4.85
2022-10-13T21:31:37.383Z,6.80
2022-10-13T21:34:04.694Z,3.92
2022-10-13T21:36:44.907Z,3.78
2022-10-13T21:39:12.287Z,9.25
2022-10-13T21:41:42.128Z,4.20
2022-10-13T21:44:12.743Z,6.15
2022-10-13T21:46:48.191Z,4.60
2022-10-13T21:49:15.227Z,6.82
2022-10-13T21:51:42.283Z,6.63
2022-10-13T21:54:10.861Z,5.35
2022-10-13T21:56:41.859Z,6.07
2022-10-13T21:59:12.389Z,3.88
2022-10-13T22:01:41.097Z,4.60
2022-10-13T22:04:08.386Z,5.95
2022-10-13T22:06:37.826Z,3.70
2022-10-13T22:09:05.629Z,9.65
2022-10-13T22:11:36.928Z,7.70
2022-10-13T22:14:04.863Z,6.93
2022-10-13T22:16:52.165Z,5.75
2022-10-13T22:19:19.950Z,7.78
2022-10-13T22:21:47.993Z,9.32
2022-10-13T22:24:18.995Z,7.75
2022-10-13T22:26:49.795Z,6.15
2022-10-13T22:29:18.324Z,10.65
2022-10-13T22:31:48.995Z,9.65
2022-10-13T22:34:19.793Z,7.13
2022-10-13T22:36:51.901Z,7.80
2022-10-13T22:39:22.268Z,13.35
2022-10-13T22:41:49.345Z,9.98
2022-10-13T22:44:21.972Z,8.25
2022-10-13T22:46:48.919Z,10.07
2022-10-13T22:49:15.847Z,11.30
2022-10-13T22:51:45.886Z,11.13
2022-10-13T22:54:13.115Z,8.63
2022-10-13T22:56:41.040Z,5.88
2022-10-13T22:59:11.274Z,8.98
2022-10-13T23:01:41.460Z,8.85
2022-10-13T23:04:08.339Z,7.45
2022-10-13T23:06:35.596Z,6.75
2022-10-13T23:09:07.451Z,7.95
2022-10-13T23:11:39.526Z,10.93
2022-10-13T23:14:09.037Z,5.93
2022-10-13T23:16:41.271Z,6.45
2022-10-13T23:19:08.191Z,6.32
2022-10-13T23:21:38.209Z,5.43
2022-10-13T23:24:06.193Z,4.82
2022-10-13T23:26:37.518Z,4.65
2022-10-13T23:29:04.937Z,10.48
2022-10-13T23:31:34.718Z,5.70
2022-10-13T23:34:01.619Z,15.95
2022-10-13T23:36:31.837Z,2.38
2022-10-13T23:39:03.971Z,3.78
2022-10-13T23:41:31.222Z,4.22
2022-10-13T23:43:58.546Z,6.18
2022-10-13T23:46:25.668Z,3.83
2022-10-13T23:48:58.228Z,3.42
2022-10-13T23:51:26.108Z,3.03
2022-10-13T23:53:53.185Z,2.97
2022-10-13T23:56:23.719Z,2.58
2022-10-13T23:58:54.275Z,3.00
